Aviation Digital Data Service (ADDS)

Output produced by METARs form (1817 UTC 24 June 2019)
found at http://www.aviationweather.gov/metar/data/
 
METAR text: MRLB 241800Z 12008KT 9999 FEW045 32/23 A2986 NOSIG
Conditions at: MRLB (LIBERIA/TOMAS G , CR) observed 1800 UTC 24 June 2019
Temperature: 32.0°C (90°F)
Dewpoint: 23.0°C (73°F) [RH = 59%]
Pressure (altimeter): 29.86 inches Hg (1011.3 mb)
Winds: from the ESE (120 degrees) at 9 MPH (8 knots; 4.1 m/s)
Visibility: 6 or more miles (10+ km)
Ceiling: at least 12,000 feet AGL
Clouds: few clouds at 4500 feet AGL
Weather: no significant weather observed at this time

METAR text: MRLB 241700Z 09010KT 9999 FEW045 SCT250 31/23 A2988 NOSIG
Conditions at: MRLB (LIBERIA/TOMAS G , CR) observed 1700 UTC 24 June 2019
Temperature: 31.0°C (88°F)
Dewpoint: 23.0°C (73°F) [RH = 63%]
Pressure (altimeter): 29.88 inches Hg (1011.9 mb)
Winds: from the E (90 degrees) at 12 MPH (10 knots; 5.1 m/s)
Visibility: 6 or more miles (10+ km)
Ceiling: at least 12,000 feet AGL
Clouds: few clouds at 4500 feet AGL
scattered clouds at 25000 feet AGL
Weather: no significant weather observed at this time

METAR text: MRLB 241600Z 28003KT 9999 FEW045 SCT250 30/25 A2988 NOSIG
Conditions at: MRLB (LIBERIA/TOMAS G , CR) observed 1600 UTC 24 June 2019
Temperature: 30.0°C (86°F)
Dewpoint: 25.0°C (77°F) [RH = 75%]
Pressure (altimeter): 29.88 inches Hg (1011.9 mb)
Winds: from the W (280 degrees) at 3 MPH (3 knots; 1.5 m/s)
Visibility: 6 or more miles (10+ km)
Ceiling: at least 12,000 feet AGL
Clouds: few clouds at 4500 feet AGL
scattered clouds at 25000 feet AGL
Weather: no significant weather observed at this time

METAR text: MRLB 241500Z 31005KT 9999 FEW045 SCT250 28/24 A2989 NOSIG
Conditions at: MRLB (LIBERIA/TOMAS G , CR) observed 1500 UTC 24 June 2019
Temperature: 28.0°C (82°F)
Dewpoint: 24.0°C (75°F) [RH = 79%]
Pressure (altimeter): 29.89 inches Hg (1012.3 mb)
Winds: from the NW (310 degrees) at 6 MPH (5 knots; 2.6 m/s)
Visibility: 6 or more miles (10+ km)
Ceiling: at least 12,000 feet AGL
Clouds: few clouds at 4500 feet AGL
scattered clouds at 25000 feet AGL
Weather: no significant weather observed at this time

METAR text: MRLB 241400Z 21003KT 9999 FEW045 SCT250 27/24 A2990 NOSIG
Conditions at: MRLB (LIBERIA/TOMAS G , CR) observed 1400 UTC 24 June 2019
Temperature: 27.0°C (81°F)
Dewpoint: 24.0°C (75°F) [RH = 84%]
Pressure (altimeter): 29.90 inches Hg (1012.6 mb)
Winds: from the SSW (210 degrees) at 3 MPH (3 knots; 1.5 m/s)
Visibility: 6 or more miles (10+ km)
Ceiling: at least 12,000 feet AGL
Clouds: few clouds at 4500 feet AGL
scattered clouds at 25000 feet AGL
Weather: no significant weather observed at this time

METAR text: MRLB 241300Z 00000KT 9999 FEW045 SCT250 25/23 A2990 NOSIG
Conditions at: MRLB (LIBERIA/TOMAS G , CR) observed 1300 UTC 24 June 2019
Temperature: 25.0°C (77°F)
Dewpoint: 23.0°C (73°F) [RH = 89%]
Pressure (altimeter): 29.90 inches Hg (1012.6 mb)
Winds: calm
Visibility: 6 or more miles (10+ km)
Ceiling: at least 12,000 feet AGL
Clouds: few clouds at 4500 feet AGL
scattered clouds at 25000 feet AGL
Weather: no significant weather observed at this time

METAR text: MRLB 241200Z 22002KT 9999 FEW040 SCT250 23/22 A2988 NOSIG
Conditions at: MRLB (LIBERIA/TOMAS G , CR) observed 1200 UTC 24 June 2019
Temperature: 23.0°C (73°F)
Dewpoint: 22.0°C (72°F) [RH = 94%]
Pressure (altimeter): 29.88 inches Hg (1011.9 mb)
Winds: from the SW (220 degrees) at 2 MPH (2 knots; 1.0 m/s)
Visibility: 6 or more miles (10+ km)
Ceiling: at least 12,000 feet AGL
Clouds: few clouds at 4000 feet AGL
scattered clouds at 25000 feet AGL
Weather: no significant weather observed at this time

METAR text: MRLB 240600Z 22006KT 9999 FEW045 BKN100 25/23 A2988 NOSIG
Conditions at: MRLB (LIBERIA/TOMAS G , CR) observed 0600 UTC 24 June 2019
Temperature: 25.0°C (77°F)
Dewpoint: 23.0°C (73°F) [RH = 89%]
Pressure (altimeter): 29.88 inches Hg (1011.9 mb)
Winds: from the SW (220 degrees) at 7 MPH (6 knots; 3.1 m/s)
Visibility: 6 or more miles (10+ km)
Ceiling: 10000 feet AGL
Clouds: few clouds at 4500 feet AGL
broken clouds at 10000 feet AGL
Weather: no significant weather observed at this time

METAR text: MRLB 240500Z 21006KT 9999 FEW045 BKN100 26/23 A2990 NOSIG
Conditions at: MRLB (LIBERIA/TOMAS G , CR) observed 0500 UTC 24 June 2019
Temperature: 26.0°C (79°F)
Dewpoint: 23.0°C (73°F) [RH = 84%]
Pressure (altimeter): 29.90 inches Hg (1012.6 mb)
Winds: from the SSW (210 degrees) at 7 MPH (6 knots; 3.1 m/s)
Visibility: 6 or more miles (10+ km)
Ceiling: 10000 feet AGL
Clouds: few clouds at 4500 feet AGL
broken clouds at 10000 feet AGL
Weather: no significant weather observed at this time

METAR text: MRLB 240400Z 18005KT 9999 FEW045 SCT100 27/23 A2989 NOSIG
Conditions at: MRLB (LIBERIA/TOMAS G , CR) observed 0400 UTC 24 June 2019
Temperature: 27.0°C (81°F)
Dewpoint: 23.0°C (73°F) [RH = 79%]
Pressure (altimeter): 29.89 inches Hg (1012.3 mb)
Winds: from the S (180 degrees) at 6 MPH (5 knots; 2.6 m/s)
Visibility: 6 or more miles (10+ km)
Ceiling: at least 12,000 feet AGL
Clouds: few clouds at 4500 feet AGL
scattered clouds at 10000 feet AGL
Weather: no significant weather observed at this time

METAR text: MRLB 240300Z 15007KT 9999 FEW045 27/23 A2988 NOSIG
Conditions at: MRLB (LIBERIA/TOMAS G , CR) observed 0300 UTC 24 June 2019
Temperature: 27.0°C (81°F)
Dewpoint: 23.0°C (73°F) [RH = 79%]
Pressure (altimeter): 29.88 inches Hg (1011.9 mb)
Winds: from the SSE (150 degrees) at 8 MPH (7 knots; 3.6 m/s)
Visibility: 6 or more miles (10+ km)
Ceiling: at least 12,000 feet AGL
Clouds: few clouds at 4500 feet AGL
Weather: no significant weather observed at this time

METAR text: MRLB 240200Z 11007KT 9999 FEW045 28/23 A2987 NOSIG
Conditions at: MRLB (LIBERIA/TOMAS G , CR) observed 0200 UTC 24 June 2019
Temperature: 28.0°C (82°F)
Dewpoint: 23.0°C (73°F) [RH = 74%]
Pressure (altimeter): 29.87 inches Hg (1011.6 mb)
Winds: from the ESE (110 degrees) at 8 MPH (7 knots; 3.6 m/s)
Visibility: 6 or more miles (10+ km)
Ceiling: at least 12,000 feet AGL
Clouds: few clouds at 4500 feet AGL
Weather: no significant weather observed at this time

METAR text: MRLB 240100Z 12007KT 9999 FEW045 29/23 A2985 NOSIG
Conditions at: MRLB (LIBERIA/TOMAS G , CR) observed 0100 UTC 24 June 2019
Temperature: 29.0°C (84°F)
Dewpoint: 23.0°C (73°F) [RH = 70%]
Pressure (altimeter): 29.85 inches Hg (1010.9 mb)
Winds: from the ESE (120 degrees) at 8 MPH (7 knots; 3.6 m/s)
Visibility: 6 or more miles (10+ km)
Ceiling: at least 12,000 feet AGL
Clouds: few clouds at 4500 feet AGL
Weather: no significant weather observed at this time

METAR text: MRLB 240000Z 13005KT CAVOK 29/22 A2982 NOSIG
Conditions at: MRLB (LIBERIA/TOMAS G , CR) observed 0000 UTC 24 June 2019
Temperature: 29.0°C (84°F)
Dewpoint: 22.0°C (72°F) [RH = 66%]
Pressure (altimeter): 29.82 inches Hg (1009.9 mb)
Winds: from the SE (130 degrees) at 6 MPH (5 knots; 2.6 m/s)
Visibility: 6 or more miles (10+ km)
Ceiling: ceiling and visibility are OK
Clouds: unknown
Weather: no significant weather observed at this time

METAR text: MRLB 232300Z 07012KT 9999 FEW045 31/22 A2979 NOSIG
Conditions at: MRLB (LIBERIA/TOMAS G , CR) observed 2300 UTC 23 June 2019
Temperature: 31.0°C (88°F)
Dewpoint: 22.0°C (72°F) [RH = 59%]
Pressure (altimeter): 29.79 inches Hg (1008.9 mb)
Winds: from the ENE (70 degrees) at 14 MPH (12 knots; 6.2 m/s)
Visibility: 6 or more miles (10+ km)
Ceiling: at least 12,000 feet AGL
Clouds: few clouds at 4500 feet AGL
Weather: no significant weather observed at this time

METAR text: MRLB 232200Z 07017KT 9999 FEW045 31/22 A2978 NOSIG
Conditions at: MRLB (LIBERIA/TOMAS G , CR) observed 2200 UTC 23 June 2019
Temperature: 31.0°C (88°F)
Dewpoint: 22.0°C (72°F) [RH = 59%]
Pressure (altimeter): 29.78 inches Hg (1008.5 mb)
Winds: from the ENE (70 degrees) at 20 MPH (17 knots; 8.7 m/s)
Visibility: 6 or more miles (10+ km)
Ceiling: at least 12,000 feet AGL
Clouds: few clouds at 4500 feet AGL
Weather: no significant weather observed at this time

METAR text: MRLB 232100Z 09009KT 9999 FEW045 33/23 A2977 NOSIG
Conditions at: MRLB (LIBERIA/TOMAS G , CR) observed 2100 UTC 23 June 2019
Temperature: 33.0°C (91°F)
Dewpoint: 23.0°C (73°F) [RH = 56%]
Pressure (altimeter): 29.77 inches Hg (1008.2 mb)
Winds: from the E (90 degrees) at 10 MPH (9 knots; 4.6 m/s)
Visibility: 6 or more miles (10+ km)
Ceiling: at least 12,000 feet AGL
Clouds: few clouds at 4500 feet AGL
Weather: no significant weather observed at this time

METAR text: MRLB 232000Z 09013KT 9999 FEW045 33/23 A2979 NOSIG
Conditions at: MRLB (LIBERIA/TOMAS G , CR) observed 2000 UTC 23 June 2019
Temperature: 33.0°C (91°F)
Dewpoint: 23.0°C (73°F) [RH = 56%]
Pressure (altimeter): 29.79 inches Hg (1008.9 mb)
Winds: from the E (90 degrees) at 15 MPH (13 knots; 6.7 m/s)
Visibility: 6 or more miles (10+ km)
Ceiling: at least 12,000 feet AGL
Clouds: few clouds at 4500 feet AGL
Weather: no significant weather observed at this time

METAR text: MRLB 231900Z 08012KT 9999 FEW045 34/24 A2980 NOSIG
Conditions at: MRLB (LIBERIA/TOMAS G , CR) observed 1900 UTC 23 June 2019
Temperature: 34.0°C (93°F)
Dewpoint: 24.0°C (75°F) [RH = 56%]
Pressure (altimeter): 29.80 inches Hg (1009.2 mb)
Winds: from the E (80 degrees) at 14 MPH (12 knots; 6.2 m/s)
Visibility: 6 or more miles (10+ km)
Ceiling: at least 12,000 feet AGL
Clouds: few clouds at 4500 feet AGL
Weather: no significant weather observed at this time

METAR text: MRLB 231800Z 07013KT 9999 FEW045 33/24 A2983 NOSIG
Conditions at: MRLB (LIBERIA/TOMAS G , CR) observed 1800 UTC 23 June 2019
Temperature: 33.0°C (91°F)
Dewpoint: 24.0°C (75°F) [RH = 59%]
Pressure (altimeter): 29.83 inches Hg (1010.2 mb)
Winds: from the ENE (70 degrees) at 15 MPH (13 knots; 6.7 m/s)
Visibility: 6 or more miles (10+ km)
Ceiling: at least 12,000 feet AGL
Clouds: few clouds at 4500 feet AGL
Weather: no significant weather observed at this time

METAR text: MRLB 231700Z 08016KT 9999 FEW045 33/24 A2985 NOSIG
Conditions at: MRLB (LIBERIA/TOMAS G , CR) observed 1700 UTC 23 June 2019
Temperature: 33.0°C (91°F)
Dewpoint: 24.0°C (75°F) [RH = 59%]
Pressure (altimeter): 29.85 inches Hg (1010.9 mb)
Winds: from the E (80 degrees) at 18 MPH (16 knots; 8.2 m/s)
Visibility: 6 or more miles (10+ km)
Ceiling: at least 12,000 feet AGL
Clouds: few clouds at 4500 feet AGL
Weather: no significant weather observed at this time

METAR text: MRLB 231600Z 08013KT 9999 FEW045 32/24 A2986 NOSIG
Conditions at: MRLB (LIBERIA/TOMAS G , CR) observed 1600 UTC 23 June 2019
Temperature: 32.0°C (90°F)
Dewpoint: 24.0°C (75°F) [RH = 63%]
Pressure (altimeter): 29.86 inches Hg (1011.3 mb)
Winds: from the E (80 degrees) at 15 MPH (13 knots; 6.7 m/s)
Visibility: 6 or more miles (10+ km)
Ceiling: at least 12,000 feet AGL
Clouds: few clouds at 4500 feet AGL
Weather: no significant weather observed at this time

METAR text: MRLB 231500Z 08014G24KT 9999 FEW045 31/24 A2987 NOSIG
Conditions at: MRLB (LIBERIA/TOMAS G , CR) observed 1500 UTC 23 June 2019
Temperature: 31.0°C (88°F)
Dewpoint: 24.0°C (75°F) [RH = 66%]
Pressure (altimeter): 29.87 inches Hg (1011.6 mb)
Winds: from the E (80 degrees) at 16 MPH (14 knots; 7.2 m/s)
gusting to 28 MPH (24 knots; 12.3 m/s)
Visibility: 6 or more miles (10+ km)
Ceiling: at least 12,000 feet AGL
Clouds: few clouds at 4500 feet AGL
Weather: no significant weather observed at this time

METAR text: MRLB 231400Z 07012KT CAVOK 31/25 A2987 NOSIG
Conditions at: MRLB (LIBERIA/TOMAS G , CR) observed 1400 UTC 23 June 2019
Temperature: 31.0°C (88°F)
Dewpoint: 25.0°C (77°F) [RH = 71%]
Pressure (altimeter): 29.87 inches Hg (1011.6 mb)
Winds: from the ENE (70 degrees) at 14 MPH (12 knots; 6.2 m/s)
Visibility: 6 or more miles (10+ km)
Ceiling: ceiling and visibility are OK
Clouds: unknown
Weather: no significant weather observed at this time

METAR text: MRLB 231300Z 10007KT CAVOK 29/25 A2985 NOSIG
Conditions at: MRLB (LIBERIA/TOMAS G , CR) observed 1300 UTC 23 June 2019
Temperature: 29.0°C (84°F)
Dewpoint: 25.0°C (77°F) [RH = 79%]
Pressure (altimeter): 29.85 inches Hg (1010.9 mb)
Winds: from the E (100 degrees) at 8 MPH (7 knots; 3.6 m/s)
Visibility: 6 or more miles (10+ km)
Ceiling: ceiling and visibility are OK
Clouds: unknown
Weather: no significant weather observed at this time

METAR text: MRLB 231200Z 13005KT CAVOK 26/24 A2985 NOSIG
Conditions at: MRLB (LIBERIA/TOMAS G , CR) observed 1200 UTC 23 June 2019
Temperature: 26.0°C (79°F)
Dewpoint: 24.0°C (75°F) [RH = 89%]
Pressure (altimeter): 29.85 inches Hg (1010.9 mb)
Winds: from the SE (130 degrees) at 6 MPH (5 knots; 2.6 m/s)
Visibility: 6 or more miles (10+ km)
Ceiling: ceiling and visibility are OK
Clouds: unknown
Weather: no significant weather observed at this time

Forecast for: MRLB (LIBERIA/TOMAS G , CR)
Text: MRLB 241700Z 2418/2518 09013KT 9999 FEW040 TX33/2419Z TN24/2511Z
Forecast period: 1800 UTC 24 June 2019 to 1800 UTC 25 June 2019
Forecast type: FROM: standard forecast or significant change
Winds: from the E (90 degrees) at 15 MPH (13 knots; 6.7 m/s)
Visibility: 6 or more miles 10+ km)
Ceiling: at least 12,000 feet AGL
Clouds: few clouds at 4000 feet AGL
Weather: no significant weather forecast for this period
Text: TEMPO 2509/2514 27005KT
Forecast period: 0900 to 1400 UTC 25 June 2019
Forecast type: TEMPORARY: The following changes expected for less than half the time period
Winds: from the W (270 degrees) at 6 MPH (5 knots; 2.6 m/s)
Visibility: missing
Ceiling: unknown
Clouds: missing
Weather: no significant weather forecast for this period